Time;durP1;ratioP1;P1;durP2;ratioP2;P2;SDS_P1;SDS_P2;PMS_P1;PMS_P2;Temp;Humidity;BMP_temperature;BMP_pressure;BME280_temperature;BME280_humidity;BME280_pressure;Samples;Min_cycle;Max_cycle;Signal;HPM_P1;HPM_P2
2022/09/30 00:00:56;;;;;;;14.00;11.80;;;;;;;9.10;100.00;95884.20;108338;1268;22568;-81
2022/09/30 00:03:47;;;;;;;17.00;12.10;;;;;;;9.01;100.00;95883.90;108385;1267;22594;-81
2022/09/30 00:06:19;;;;;;;13.80;12.20;;;;;;;8.94;100.00;95882.04;108309;1268;22574;-81
2022/09/30 00:08:51;;;;;;;17.50;14.70;;;;;;;8.89;100.00;95878.39;108309;1267;29239;-81
2022/09/30 00:11:24;;;;;;;17.40;14.80;;;;;;;8.85;100.00;95876.21;108324;1268;22559;-81
2022/09/30 00:13:58;;;;;;;16.70;13.40;;;;;;;8.85;100.00;95880.88;108331;1268;22565;-81
2022/09/30 00:16:32;;;;;;;14.00;11.80;;;;;;;8.87;100.00;95877.11;108389;1267;22558;-81
2022/09/30 00:19:05;;;;;;;13.00;10.60;;;;;;;8.87;100.00;95876.05;108286;1268;24602;-81
2022/09/30 00:21:36;;;;;;;12.00;9.90;;;;;;;8.84;100.00;95872.31;108328;1268;24173;-81
2022/09/30 00:24:08;;;;;;;12.40;9.80;;;;;;;8.85;100.00;95869.09;108402;1268;23339;-81
2022/09/30 00:26:39;;;;;;;12.00;9.00;;;;;;;8.85;100.00;95867.45;108393;1267;23019;-81
2022/09/30 00:29:12;;;;;;;15.80;12.90;;;;;;;8.84;100.00;95870.01;108344;1267;31520;-81
2022/09/30 00:31:44;;;;;;;11.50;8.80;;;;;;;8.82;100.00;95867.44;108340;1268;22617;-81
2022/09/30 00:34:18;;;;;;;14.50;10.70;;;;;;;8.80;100.00;95868.64;108313;1268;22638;-81
2022/09/30 00:36:52;;;;;;;14.90;11.10;;;;;;;8.79;100.00;95875.48;108226;1270;24435;-81
2022/09/30 00:39:26;;;;;;;12.30;10.10;;;;;;;8.76;100.00;95879.48;108299;1267;28485;-81
2022/09/30 00:41:59;;;;;;;11.70;9.80;;;;;;;8.67;100.00;95874.98;108406;1267;22549;-82
2022/09/30 00:44:55;;;;;;;10.40;8.10;;;;;;;8.62;100.00;95877.39;108365;1267;22572;-81
2022/09/30 00:47:50;;;;;;;17.60;8.60;;;;;;;8.60;100.00;95886.38;108385;1267;24086;-81
2022/09/30 00:50:41;;;;;;;18.70;16.00;;;;;;;8.51;100.00;95890.66;108301;1267;28205;-81
2022/09/30 00:53:16;;;;;;;19.80;15.10;;;;;;;8.41;100.00;95888.97;108339;1268;23197;-81
2022/09/30 00:55:55;;;;;;;15.70;13.50;;;;;;;8.40;100.00;95892.64;108349;1268;22591;-81
2022/09/30 00:58:30;;;;;;;19.20;13.60;;;;;;;8.42;100.00;95897.21;108377;1267;27788;-81
2022/09/30 01:01:03;;;;;;;12.60;10.80;;;;;;;8.43;100.00;95898.93;108331;1268;24217;-81
2022/09/30 01:03:38;;;;;;;11.20;9.60;;;;;;;8.41;100.00;95898.44;108343;1268;22647;-81
2022/09/30 01:06:09;;;;;;;12.70;9.10;;;;;;;8.39;100.00;95900.92;108419;1265;24351;-81
2022/09/30 01:08:42;;;;;;;9.60;6.70;;;;;;;8.42;100.00;95885.52;108318;1268;26299;-80
2022/09/30 01:11:18;;;;;;;9.20;6.50;;;;;;;8.40;100.00;95877.16;108377;1267;22998;-81
2022/09/30 01:13:52;;;;;;;8.70;6.80;;;;;;;8.38;100.00;95875.49;108313;1268;22531;-81
2022/09/30 01:16:40;;;;;;;8.80;6.20;;;;;;;8.37;100.00;95872.45;108408;1268;25970;-81
2022/09/30 01:19:29;;;;;;;7.80;6.10;;;;;;;8.37;100.00;95871.02;108269;1267;41195;-81
2022/09/30 01:22:14;;;;;;;8.20;6.10;;;;;;;8.34;100.00;95880.87;108404;1267;24327;-81
2022/09/30 01:25:11;;;;;;;9.70;6.70;;;;;;;8.33;100.00;95881.98;108371;1267;23767;-81
2022/09/30 01:28:14;;;;;;;9.30;6.30;;;;;;;8.31;100.00;95888.65;108403;1267;24068;-81
2022/09/30 01:31:02;;;;;;;10.10;7.90;;;;;;;8.25;100.00;95888.07;108364;1267;25119;-81
2022/09/30 01:33:45;;;;;;;10.30;8.50;;;;;;;8.09;100.00;95896.95;108410;1267;22541;-81
2022/09/30 01:36:30;;;;;;;10.60;9.50;;;;;;;7.96;100.00;95898.07;108406;1267;22639;-81
2022/09/30 01:39:11;;;;;;;11.10;9.80;;;;;;;7.91;100.00;95896.86;108269;1268;35053;-81
2022/09/30 01:42:01;;;;;;;13.20;8.90;;;;;;;7.92;100.00;95898.39;108251;1268;205086;-81
2022/09/30 01:44:37;;;;;;;10.90;8.60;;;;;;;7.95;100.00;95898.45;108403;1267;22750;-81
2022/09/30 01:47:13;;;;;;;11.60;8.60;;;;;;;8.02;100.00;95906.89;108380;1268;22674;-81
2022/09/30 01:49:52;;;;;;;9.80;8.60;;;;;;;8.07;100.00;95907.31;108277;1268;33389;-81
2022/09/30 01:52:32;;;;;;;11.30;8.20;;;;;;;8.12;100.00;95905.41;108374;1267;22559;-81
2022/09/30 01:55:12;;;;;;;10.70;7.90;;;;;;;8.17;100.00;95901.05;108332;1268;22599;-81
2022/09/30 01:57:53;;;;;;;10.70;8.00;;;;;;;8.16;100.00;95895.44;108445;1267;22523;-81
2022/09/30 02:00:24;;;;;;;10.00;8.40;;;;;;;8.15;100.00;95882.58;108279;1268;29924;-81
2022/09/30 02:02:59;;;;;;;11.30;8.30;;;;;;;8.17;100.00;95873.69;108240;1270;22719;-81
2022/09/30 02:05:40;;;;;;;9.80;8.40;;;;;;;8.20;100.00;95871.11;108332;1270;22549;-81
2022/09/30 02:08:21;;;;;;;10.00;8.60;;;;;;;8.23;100.00;95864.11;108327;1270;23851;-81
2022/09/30 02:10:57;;;;;;;10.30;8.50;;;;;;;8.19;100.00;95856.66;108309;1269;22618;-81
2022/09/30 02:13:36;;;;;;;10.10;8.60;;;;;;;8.16;100.00;95863.76;108226;1270;22644;-81
2022/09/30 02:16:12;;;;;;;10.10;8.30;;;;;;;8.17;100.00;95864.62;108345;1270;22543;-81
2022/09/30 02:18:47;;;;;;;13.40;9.10;;;;;;;8.12;100.00;95863.75;108154;1270;45613;-81
2022/09/30 02:21:21;;;;;;;12.60;8.90;;;;;;;8.04;100.00;95867.49;108307;1267;25405;-81
2022/09/30 02:23:59;;;;;;;11.00;8.40;;;;;;;8.05;100.00;95866.43;108290;1270;22564;-80
2022/09/30 02:26:34;;;;;;;12.00;9.30;;;;;;;8.04;100.00;95874.58;108228;1270;22527;-81
2022/09/30 02:29:09;;;;;;;13.30;9.70;;;;;;;8.05;100.00;95886.33;108151;1270;26108;-80
2022/09/30 02:31:46;;;;;;;11.90;7.80;;;;;;;8.12;100.00;95887.46;108287;1270;24245;-81
2022/09/30 02:34:20;;;;;;;10.90;8.70;;;;;;;8.19;100.00;95887.40;108294;1269;22700;-81
2022/09/30 02:36:57;;;;;;;13.30;9.50;;;;;;;8.24;100.00;95889.70;108212;1270;22533;-81
2022/09/30 02:39:34;;;;;;;12.40;9.80;;;;;;;8.31;100.00;95889.75;108131;1270;36509;-81
2022/09/30 02:42:13;;;;;;;12.30;9.70;;;;;;;8.38;100.00;95889.17;108300;1270;22546;-81
2022/09/30 02:44:44;;;;;;;11.90;9.00;;;;;;;8.41;100.00;95889.45;108275;1270;22941;-81
2022/09/30 02:47:23;;;;;;;11.60;9.70;;;;;;;8.43;100.00;95884.73;108197;1270;22544;-81
2022/09/30 02:50:01;;;;;;;12.40;9.50;;;;;;;8.41;100.00;95876.35;108122;1270;22544;-81
2022/09/30 02:52:43;;;;;;;12.20;9.40;;;;;;;8.45;100.00;95878.11;108288;1270;23150;-81
2022/09/30 02:55:23;;;;;;;13.10;9.40;;;;;;;8.49;100.00;95874.99;108252;1270;22577;-81
2022/09/30 02:58:04;;;;;;;12.80;10.00;;;;;;;8.52;100.00;95873.58;108195;1270;22561;-81
2022/09/30 03:00:36;;;;;;;11.90;10.20;;;;;;;8.55;100.00;95879.88;108323;1268;26099;-81
2022/09/30 03:03:12;;;;;;;13.70;11.30;;;;;;;8.54;100.00;95879.95;108303;1268;22542;-81
2022/09/30 03:05:44;;;;;;;14.50;12.70;;;;;;;8.50;100.00;95873.30;108317;1268;22535;-81
2022/09/30 03:08:15;;;;;;;15.60;13.60;;;;;;;8.53;100.00;95870.77;108431;1267;24205;-81
2022/09/30 03:10:50;;;;;;;15.90;12.20;;;;;;;8.56;100.00;95876.11;108227;1270;29759;-81
2022/09/30 03:13:43;;;;;;;13.00;10.60;;;;;;;8.61;100.00;95880.41;108233;1270;24042;-81
2022/09/30 03:16:30;;;;;;;14.40;12.20;;;;;;;8.57;100.00;95882.87;108190;1270;23783;-81
2022/09/30 03:19:19;;;;;;;13.60;11.70;;;;;;;8.53;100.00;95881.92;108259;1270;30294;-81
2022/09/30 03:22:13;;;;;;;17.00;11.20;;;;;;;8.51;100.00;95882.15;108184;1270;22562;-81
2022/09/30 03:25:10;;;;;;;15.40;11.10;;;;;;;8.54;100.00;95887.83;108256;1270;22536;-81
2022/09/30 03:27:55;;;;;;;13.80;10.90;;;;;;;8.56;100.00;95886.48;108177;1270;22482;-81
2022/09/30 03:30:27;;;;;;;14.00;10.30;;;;;;;8.54;100.00;95893.16;108117;1270;33500;-81
2022/09/30 03:33:09;;;;;;;13.00;10.90;;;;;;;8.48;100.00;95895.98;108180;1270;22991;-80
2022/09/30 03:35:47;;;;;;;12.50;9.80;;;;;;;8.43;100.00;95891.48;108191;1270;22685;-81
2022/09/30 03:38:30;;;;;;;12.60;10.60;;;;;;;8.40;100.00;95897.02;108207;1270;24490;-81
2022/09/30 03:41:08;;;;;;;14.20;10.50;;;;;;;8.38;100.00;95901.48;108182;1270;22729;-81
2022/09/30 03:43:48;;;;;;;13.70;11.30;;;;;;;8.40;100.00;95904.09;108205;1270;22540;-81
2022/09/30 03:46:25;;;;;;;13.70;11.30;;;;;;;8.43;100.00;95905.33;108258;1270;22588;-81
2022/09/30 03:49:00;;;;;;;13.10;11.10;;;;;;;8.47;100.00;95900.59;108213;1270;27504;-81
2022/09/30 03:51:32;;;;;;;13.50;11.30;;;;;;;8.50;100.00;95909.17;108266;1269;22531;-81
2022/09/30 03:54:10;;;;;;;12.40;10.90;;;;;;;8.53;100.00;95909.44;108198;1270;23916;-81
2022/09/30 03:56:42;;;;;;;13.90;10.80;;;;;;;8.57;100.00;95910.39;108285;1270;22523;-81
2022/09/30 03:59:22;;;;;;;14.30;11.00;;;;;;;8.62;100.00;95909.14;108181;1270;26027;-81
2022/09/30 04:01:53;;;;;;;13.30;10.90;;;;;;;8.66;100.00;95907.14;108289;1270;25950;-81
2022/09/30 04:04:25;;;;;;;14.00;11.30;;;;;;;8.70;100.00;95911.98;108320;1270;24460;-81
2022/09/30 04:06:56;;;;;;;13.70;11.70;;;;;;;8.72;100.00;95908.90;108210;1270;22545;-81
2022/09/30 04:09:28;;;;;;;13.30;10.40;;;;;;;8.71;100.00;95910.98;108252;1268;33475;-81
2022/09/30 04:12:01;;;;;;;13.50;11.10;;;;;;;8.70;100.00;95912.95;108418;1268;22836;-81
2022/09/30 04:14:33;;;;;;;15.30;11.40;;;;;;;8.70;100.00;95915.27;108317;1268;22780;-81
2022/09/30 04:17:05;;;;;;;14.00;11.40;;;;;;;8.72;100.00;95917.84;108414;1267;24159;-81
2022/09/30 04:19:38;;;;;;;14.80;12.20;;;;;;;8.74;100.00;95913.23;108207;1268;50403;-81
2022/09/30 04:22:10;;;;;;;15.20;12.50;;;;;;;8.72;100.00;95913.40;108297;1270;24263;-81
2022/09/30 04:24:42;;;;;;;15.10;12.70;;;;;;;8.67;100.00;95910.75;108297;1270;22532;-81
2022/09/30 04:27:13;;;;;;;15.70;13.00;;;;;;;8.64;100.00;95915.55;108323;1270;22615;-81
2022/09/30 04:29:44;;;;;;;14.80;12.10;;;;;;;8.65;100.00;95916.23;108193;1270;29843;-81
2022/09/30 04:32:16;;;;;;;14.60;12.20;;;;;;;8.66;100.00;95918.98;108329;1268;22634;-81
2022/09/30 04:34:47;;;;;;;16.60;12.80;;;;;;;8.69;100.00;95921.20;108329;1268;22525;-81
2022/09/30 04:37:18;;;;;;;14.90;12.80;;;;;;;8.72;100.00;95916.24;108275;1270;22522;-81
2022/09/30 04:39:49;;;;;;;16.70;13.70;;;;;;;8.72;100.00;95922.33;108272;1269;30690;-81
2022/09/30 04:42:20;;;;;;;15.40;13.00;;;;;;;8.76;100.00;95924.67;108319;1270;25322;-81
2022/09/30 04:44:51;;;;;;;18.20;12.90;;;;;;;8.79;100.00;95928.20;108462;1267;22555;-81
2022/09/30 04:47:24;;;;;;;17.50;13.80;;;;;;;8.83;100.00;95927.64;108356;1269;23315;-81
2022/09/30 04:49:55;;;;;;;17.40;14.70;;;;;;;8.85;100.00;95929.77;108278;1270;28253;-81
2022/09/30 04:52:26;;;;;;;18.30;15.50;;;;;;;8.85;100.00;95929.92;108320;1269;22574;-81
2022/09/30 04:54:58;;;;;;;17.40;15.60;;;;;;;8.82;100.00;95931.40;108280;1270;22802;-81
2022/09/30 04:57:29;;;;;;;16.90;14.70;;;;;;;8.80;100.00;95928.63;108428;1268;22544;-81
2022/09/30 05:00:00;;;;;;;16.40;13.60;;;;;;;8.81;100.00;95930.14;108324;1268;29145;-81
2022/09/30 05:02:32;;;;;;;15.20;13.60;;;;;;;8.80;100.00;95930.46;108330;1269;24309;-80
2022/09/30 05:05:05;;;;;;;17.40;14.80;;;;;;;8.81;100.00;95928.98;108311;1270;25379;-80
2022/09/30 05:07:36;;;;;;;15.90;14.00;;;;;;;8.84;100.00;95928.21;108469;1267;24144;-81
2022/09/30 05:10:11;;;;;;;21.00;15.90;;;;;;;8.86;100.00;95931.30;108272;1268;30345;-81
2022/09/30 05:12:44;;;;;;;17.30;13.70;;;;;;;8.88;100.00;95928.48;108415;1267;22533;-81
2022/09/30 05:15:15;;;;;;;18.00;15.10;;;;;;;8.89;100.00;95929.85;108415;1268;22516;-81
2022/09/30 05:17:49;;;;;;;18.70;15.00;;;;;;;8.89;100.00;95932.54;108319;1270;23932;-81
2022/09/30 05:20:20;;;;;;;17.50;14.30;;;;;;;8.93;100.00;95934.34;108374;1267;35533;-81
2022/09/30 05:22:56;;;;;;;17.80;15.20;;;;;;;8.97;100.00;95938.04;108432;1268;25140;-81
2022/09/30 05:25:27;;;;;;;15.90;14.10;;;;;;;8.95;100.00;95936.27;108325;1270;22523;-81
2022/09/30 05:27:59;;;;;;;17.50;14.00;;;;;;;8.94;100.00;95939.30;108321;1270;22618;-81
2022/09/30 05:30:30;;;;;;;16.20;14.00;;;;;;;8.92;100.00;95947.14;108345;1268;37266;-81
2022/09/30 05:33:01;;;;;;;17.10;13.40;;;;;;;8.87;100.00;95948.95;108325;1268;22955;-81
2022/09/30 05:35:33;;;;;;;16.70;12.70;;;;;;;8.83;100.00;95947.20;108324;1268;22582;-81
2022/09/30 05:38:04;;;;;;;17.40;13.40;;;;;;;8.81;100.00;95953.55;108415;1268;22654;-81
2022/09/30 05:40:40;;;;;;;15.30;12.90;;;;;;;8.83;100.00;95953.43;108347;1268;34158;-81
2022/09/30 05:43:13;;;;;;;16.10;13.50;;;;;;;8.82;100.00;95958.41;108421;1268;22527;-81
2022/09/30 05:45:51;;;;;;;16.10;13.60;;;;;;;8.79;100.00;95953.27;108429;1268;25219;-81
2022/09/30 05:48:23;;;;;;;16.20;13.80;;;;;;;8.81;100.00;95951.88;108212;1269;39788;-80
2022/09/30 05:51:00;;;;;;;16.10;13.60;;;;;;;8.82;100.00;95951.80;108407;1268;22700;-80
2022/09/30 05:53:33;;;;;;;15.40;13.70;;;;;;;8.84;100.00;95957.95;108320;1269;22553;-81
2022/09/30 05:56:05;;;;;;;17.70;14.40;;;;;;;8.85;100.00;95963.02;108411;1267;22589;-81
2022/09/30 05:58:37;;;;;;;16.90;14.80;;;;;;;8.86;100.00;95963.02;108292;1268;31736;-81
2022/09/30 06:01:10;;;;;;;15.70;13.90;;;;;;;8.89;100.00;95960.98;108338;1268;22661;-81
2022/09/30 06:03:43;;;;;;;15.90;13.70;;;;;;;8.93;100.00;95966.54;108430;1267;24495;-81
2022/09/30 06:06:15;;;;;;;17.40;14.40;;;;;;;9.00;100.00;95972.64;108411;1268;24983;-81
2022/09/30 06:08:47;;;;;;;17.30;15.00;;;;;;;9.05;100.00;95973.00;108378;1268;28284;-81
2022/09/30 06:11:20;;;;;;;15.70;13.80;;;;;;;9.10;100.00;95973.35;108431;1267;22556;-81
2022/09/30 06:13:52;;;;;;;17.50;14.20;;;;;;;9.15;100.00;95977.00;108337;1270;22567;-80
2022/09/30 06:16:23;;;;;;;16.70;14.20;;;;;;;9.18;100.00;95972.73;108366;1269;24277;-81
2022/09/30 06:18:54;;;;;;;16.70;14.50;;;;;;;9.20;100.00;95979.21;108290;1269;23434;-80
2022/09/30 06:21:27;;;;;;;18.10;14.40;;;;;;;9.21;100.00;95982.63;108329;1270;22647;-80
2022/09/30 06:23:58;;;;;;;18.60;14.60;;;;;;;9.20;100.00;95981.21;108362;1270;24262;-81
2022/09/30 06:26:30;;;;;;;16.90;14.10;;;;;;;9.20;100.00;95977.50;108335;1270;22559;-81
2022/09/30 06:29:01;;;;;;;16.60;14.90;;;;;;;9.20;100.00;95974.23;108208;1270;29601;-80
2022/09/30 06:31:35;;;;;;;16.70;14.80;;;;;;;9.21;100.00;95972.79;108350;1270;25328;-81
2022/09/30 06:34:07;;;;;;;17.90;15.40;;;;;;;9.24;100.00;95966.19;108266;1270;24370;-81
2022/09/30 06:36:38;;;;;;;16.40;13.80;;;;;;;9.29;100.00;95970.41;108191;1270;25561;-81
2022/09/30 06:39:09;;;;;;;17.40;13.80;;;;;;;9.31;100.00;95980.50;108158;1270;30428;-81
2022/09/30 06:41:42;;;;;;;16.70;13.90;;;;;;;9.29;100.00;95992.00;108320;1270;22555;-80
2022/09/30 06:44:16;;;;;;;16.00;14.30;;;;;;;9.24;100.00;95992.01;108282;1270;24225;-81
2022/09/30 06:46:47;;;;;;;17.90;14.80;;;;;;;9.23;100.00;95984.40;108289;1270;22557;-81
2022/09/30 06:49:19;;;;;;;18.60;14.90;;;;;;;9.28;100.00;95981.22;108238;1269;25385;-80
2022/09/30 06:51:51;;;;;;;17.10;13.50;;;;;;;9.35;100.00;95988.11;108300;1270;22563;-81
2022/09/30 06:54:22;;;;;;;17.80;15.20;;;;;;;9.37;100.00;95988.92;108333;1270;22568;-81
2022/09/30 06:56:57;;;;;;;16.50;14.20;;;;;;;9.37;100.00;95987.02;108320;1270;22543;-80
2022/09/30 06:59:29;;;;;;;16.70;14.20;;;;;;;9.36;100.00;95986.19;108156;1270;27716;-81
2022/09/30 07:02:00;;;;;;;16.90;14.10;;;;;;;9.39;100.00;95988.95;108303;1270;22640;-81
2022/09/30 07:04:31;;;;;;;16.30;13.80;;;;;;;9.41;100.00;95986.95;108212;1270;22559;-81
2022/09/30 07:07:03;;;;;;;17.90;14.70;;;;;;;9.45;100.00;95982.00;108291;1270;24246;-81
2022/09/30 07:09:36;;;;;;;17.80;14.40;;;;;;;9.50;100.00;95976.30;108248;1268;27158;-81
2022/09/30 07:12:08;;;;;;;16.40;14.60;;;;;;;9.56;100.00;95977.65;108345;1270;22527;-81
2022/09/30 07:14:39;;;;;;;17.70;14.80;;;;;;;9.57;100.00;95977.44;108314;1270;22568;-81
2022/09/30 07:17:10;;;;;;;18.10;14.20;;;;;;;9.59;100.00;95978.06;108318;1270;22560;-81
2022/09/30 07:19:42;;;;;;;16.40;13.40;;;;;;;9.58;100.00;95984.27;108277;1268;31175;-81
2022/09/30 07:22:28;;;;;;;17.20;14.00;;;;;;;9.53;100.00;95988.86;108358;1270;22538;-81
2022/09/30 07:25:02;;;;;;;18.10;15.40;;;;;;;9.50;100.00;95989.59;108321;1270;22557;-81
2022/09/30 07:27:35;;;;;;;17.40;14.60;;;;;;;9.50;100.00;95999.44;108356;1269;22556;-81
2022/09/30 07:30:08;;;;;;;19.10;14.90;;;;;;;9.52;100.00;96001.30;108293;1269;25094;-81
2022/09/30 07:32:40;;;;;;;21.60;16.00;;;;;;;9.54;100.00;95998.27;108352;1268;22597;-81
2022/09/30 07:35:11;;;;;;;19.80;15.70;;;;;;;9.60;100.00;95998.88;108328;1268;24098;-81
2022/09/30 07:37:43;;;;;;;21.00;15.30;;;;;;;9.68;100.00;95995.90;108297;1270;22641;-82
2022/09/30 07:40:15;;;;;;;17.30;13.60;;;;;;;9.76;100.00;96000.56;108257;1270;32416;-81
2022/09/30 07:42:46;;;;;;;17.40;13.50;;;;;;;9.77;100.00;96006.20;108319;1270;22669;-82
2022/09/30 07:45:18;;;;;;;17.90;13.70;;;;;;;9.70;100.00;96001.76;108348;1269;22539;-82
2022/09/30 07:47:49;;;;;;;18.90;14.10;;;;;;;9.67;100.00;96006.30;108310;1270;22590;-82
2022/09/30 07:50:21;;;;;;;19.10;14.90;;;;;;;9.69;100.00;96003.83;108256;1270;28557;-82
2022/09/30 07:52:52;;;;;;;18.60;15.30;;;;;;;9.74;100.00;96003.88;108319;1270;22772;-82
2022/09/30 07:55:24;;;;;;;17.10;13.40;;;;;;;9.79;100.00;96010.83;108331;1268;24171;-82
2022/09/30 07:57:55;;;;;;;17.50;13.90;;;;;;;9.79;100.00;96008.65;108314;1270;22542;-82
2022/09/30 08:00:26;;;;;;;17.70;13.30;;;;;;;9.81;100.00;96007.77;108311;1271;26429;-82
2022/09/30 08:02:57;;;;;;;16.60;13.70;;;;;;;9.84;100.00;96013.14;108361;1268;22532;-82
2022/09/30 08:05:31;;;;;;;15.80;13.50;;;;;;;9.86;100.00;96014.17;108343;1269;22532;-82
2022/09/30 08:08:03;;;;;;;17.40;13.20;;;;;;;9.90;100.00;96013.80;108293;1270;22582;-81
2022/09/30 08:10:36;;;;;;;16.10;13.60;;;;;;;9.94;100.00;96011.84;108305;1268;24601;-82
2022/09/30 08:13:08;;;;;;;15.70;12.80;;;;;;;10.02;100.00;96007.99;108337;1268;23852;-81
2022/09/30 08:15:41;;;;;;;18.00;13.80;;;;;;;10.13;100.00;96008.05;108301;1270;22536;-82
2022/09/30 08:18:12;;;;;;;16.80;13.50;;;;;;;10.23;100.00;96007.30;108346;1271;22580;-81
2022/09/30 08:20:43;;;;;;;17.70;13.90;;;;;;;10.35;100.00;96008.33;108263;1270;28566;-82
2022/09/30 08:23:15;;;;;;;16.20;13.20;;;;;;;10.46;100.00;96009.70;108368;1268;22553;-81
2022/09/30 08:25:46;;;;;;;15.10;12.00;;;;;;;10.54;100.00;96011.88;108365;1270;23841;-82
2022/09/30 08:28:18;;;;;;;14.20;11.80;;;;;;;10.61;100.00;96016.41;108373;1268;22531;-81
2022/09/30 08:30:50;;;;;;;16.20;12.00;;;;;;;10.69;100.00;96015.80;108357;1268;23383;-81
2022/09/30 08:33:21;;;;;;;14.20;11.50;;;;;;;10.75;100.00;96018.30;108317;1270;22549;-82
2022/09/30 08:35:52;;;;;;;13.00;10.90;;;;;;;10.80;100.00;96019.20;108312;1270;22541;-81
2022/09/30 08:38:24;;;;;;;14.50;11.10;;;;;;;10.83;100.00;96020.25;108295;1270;31679;-81
2022/09/30 08:41:03;;;;;;;13.00;10.60;;;;;;;10.88;100.00;96020.86;108346;1268;22700;-82
2022/09/30 08:43:48;;;;;;;13.00;10.50;;;;;;;10.96;100.00;96019.90;108401;1268;22595;-82
2022/09/30 08:46:30;;;;;;;13.10;10.90;;;;;;;11.06;100.00;96017.39;108303;1270;24208;-82
2022/09/30 08:49:13;;;;;;;15.20;10.70;;;;;;;11.08;100.00;96017.71;108223;1270;33039;-81
2022/09/30 08:51:48;;;;;;;12.50;10.70;;;;;;;11.11;100.00;96015.38;108301;1270;24292;-82
2022/09/30 08:54:24;;;;;;;12.90;10.30;;;;;;;11.14;100.00;96011.52;108294;1270;22919;-81
2022/09/30 08:57:04;;;;;;;14.30;10.90;;;;;;;11.16;100.00;96010.61;108299;1270;23482;-82
2022/09/30 08:59:40;;;;;;;12.00;10.20;;;;;;;11.19;100.00;96006.48;108268;1268;37334;-81
2022/09/30 09:02:21;;;;;;;11.40;9.80;;;;;;;11.17;100.00;96004.72;108343;1271;24214;-81
2022/09/30 09:04:52;;;;;;;;;;;;;;;11.17;100.00;96003.06;108351;1270;23995;-82
2022/09/30 09:07:39;;;;;;;10.00;8.60;;;;;;;11.17;100.00;96010.96;108304;1270;22542;-82
2022/09/30 09:10:24;;;;;;;9.70;8.30;;;;;;;11.15;100.00;96016.69;108294;1271;35404;-81
2022/09/30 09:13:04;;;;;;;9.40;7.80;;;;;;;11.12;100.00;96016.11;108353;1268;22538;-82
2022/09/30 09:15:49;;;;;;;10.80;8.70;;;;;;;11.09;100.00;96021.63;108341;1268;22538;-82
2022/09/30 09:18:34;;;;;;;11.00;9.40;;;;;;;11.09;100.00;96020.19;108296;1270;23377;-82
2022/09/30 09:21:21;;;;;;;11.40;10.20;;;;;;;11.04;100.00;96026.45;108300;1270;24068;-81
2022/09/30 09:23:57;;;;;;;11.10;9.50;;;;;;;10.96;100.00;96023.73;108408;1271;22541;-82
2022/09/30 09:26:35;;;;;;;12.30;9.50;;;;;;;10.97;100.00;96027.89;108366;1271;22690;-82
2022/09/30 09:29:22;;;;;;;10.40;9.20;;;;;;;11.04;100.00;96025.07;108273;1270;22550;-81
2022/09/30 09:31:56;;;;;;;9.40;7.50;;;;;;;11.17;100.00;96026.56;108356;1270;23889;-81
2022/09/30 09:34:29;;;;;;;9.70;7.90;;;;;;;11.22;100.00;96032.41;108291;1270;22692;-81
2022/09/30 09:37:15;;;;;;;9.50;7.70;;;;;;;11.22;100.00;96033.56;108310;1271;23297;-82
2022/09/30 09:40:09;;;;;;;10.40;8.40;;;;;;;11.17;100.00;96036.92;108275;1270;27719;-82
2022/09/30 09:43:06;;;;;;;10.10;8.30;;;;;;;11.16;100.00;96040.00;108353;1271;23275;-81
2022/09/30 09:45:43;;;;;;;9.50;7.90;;;;;;;11.20;100.00;96039.29;108256;1271;22541;-82
2022/09/30 09:48:15;;;;;;;10.50;8.10;;;;;;;11.26;100.00;96047.55;108344;1268;22537;-82
2022/09/30 09:50:57;;;;;;;10.20;7.70;;;;;;;11.28;100.00;96048.70;108279;1268;31459;-82
2022/09/30 09:53:44;;;;;;;9.10;7.30;;;;;;;11.26;100.00;96054.19;108303;1270;22584;-82
2022/09/30 09:56:19;;;;;;;8.90;7.10;;;;;;;11.21;100.00;96061.06;108312;1270;22673;-82
2022/09/30 09:59:15;;;;;;;8.40;6.80;;;;;;;11.21;100.00;96066.64;108290;1270;24243;-82
2022/09/30 10:01:49;;;;;;;8.00;6.90;;;;;;;11.23;100.00;96071.85;108315;1271;22543;-82
2022/09/30 10:04:24;;;;;;;9.90;7.20;;;;;;;11.23;100.00;96074.40;108319;1268;23311;-81
2022/09/30 10:06:58;;;;;;;7.60;6.40;;;;;;;11.20;100.00;96077.02;108303;1271;23217;-82
2022/09/30 10:09:33;;;;;;;8.00;5.80;;;;;;;11.16;100.00;96076.89;108285;1268;26966;-82
2022/09/30 10:12:29;;;;;;;7.10;5.80;;;;;;;11.13;100.00;96080.17;108342;1268;22770;-82
2022/09/30 10:15:15;;;;;;;8.00;6.30;;;;;;;11.13;100.00;96077.48;108356;1268;24316;-82
2022/09/30 10:17:54;;;;;;;7.80;6.80;;;;;;;11.06;100.00;96084.02;108350;1271;23913;-82
2022/09/30 10:20:33;;;;;;;9.50;7.20;;;;;;;11.01;100.00;96083.27;108268;1268;33104;-82
2022/09/30 10:23:17;;;;;;;7.10;6.10;;;;;;;11.00;100.00;96083.77;108344;1271;24268;-82
2022/09/30 10:25:59;;;;;;;7.30;6.30;;;;;;;10.99;100.00;96082.48;108318;1271;25927;-82
2022/09/30 10:28:32;;;;;;;6.80;6.10;;;;;;;10.99;100.00;96080.19;108276;1268;30298;-81
2022/09/30 10:31:13;;;;;;;7.60;6.10;;;;;;;10.98;100.00;96081.78;108369;1268;22528;-82
2022/09/30 10:33:47;;;;;;;7.30;6.10;;;;;;;11.02;100.00;96081.87;108320;1270;22533;-81
2022/09/30 10:36:21;;;;;;;8.60;6.60;;;;;;;11.08;100.00;96083.98;108344;1268;23920;-82
2022/09/30 10:39:00;;;;;;;8.80;6.30;;;;;;;11.21;100.00;96081.72;108270;1268;32879;-81
2022/09/30 10:41:34;;;;;;;6.80;5.60;;;;;;;11.32;100.00;96084.91;108280;1270;24009;-82
2022/09/30 10:44:12;;;;;;;7.00;5.50;;;;;;;11.40;100.00;96085.98;108273;1271;24237;-81
2022/09/30 10:46:46;;;;;;;6.40;5.10;;;;;;;11.46;100.00;96089.52;108273;1271;22733;-82
2022/09/30 10:49:28;;;;;;;6.80;6.10;;;;;;;11.54;100.00;96086.44;108261;1268;35416;-82
2022/09/30 10:52:01;;;;;;;8.40;7.50;;;;;;;11.61;100.00;96088.41;108230;1270;24219;-81
2022/09/30 10:54:52;;;;;;;8.90;6.90;;;;;;;11.66;100.00;96091.55;108277;1271;22607;-82
2022/09/30 10:57:27;;;;;;;8.30;7.30;;;;;;;11.71;100.00;96091.14;108349;1268;22556;-82
2022/09/30 11:00:04;;;;;;;10.50;7.70;;;;;;;11.68;100.00;96089.91;108305;1268;29391;-81
2022/09/30 11:02:41;;;;;;;9.20;7.20;;;;;;;11.68;100.00;96088.69;108362;1268;22543;-82
2022/09/30 11:05:20;;;;;;;8.10;6.60;;;;;;;11.75;100.00;96087.95;108240;1271;22635;-82
2022/09/30 11:07:58;;;;;;;7.30;6.00;;;;;;;11.79;100.00;96092.94;108334;1268;22574;-82
2022/09/30 11:10:46;;;;;;;8.40;6.90;;;;;;;11.84;100.00;96090.95;108271;1268;22556;-82
2022/09/30 11:13:25;;;;;;;7.50;6.10;;;;;;;11.93;100.00;96087.19;108338;1268;22683;-82
2022/09/30 11:16:06;;;;;;;7.70;6.20;;;;;;;12.01;100.00;96086.48;108235;1271;23912;-82
2022/09/30 11:18:45;;;;;;;7.10;5.30;;;;;;;12.16;100.00;96089.06;108170;1269;27660;-81
2022/09/30 11:21:22;;;;;;;7.30;6.20;;;;;;;12.37;100.00;96091.29;108250;1271;24215;-81
2022/09/30 11:23:58;;;;;;;5.70;4.80;;;;;;;12.54;100.00;96089.72;108263;1271;25929;-81
2022/09/30 11:26:42;;;;;;;7.30;5.80;;;;;;;12.66;100.00;96087.66;108329;1268;22572;-81
2022/09/30 11:29:32;;;;;;;6.40;5.30;;;;;;;12.77;100.00;96094.08;108239;1268;36205;-81
2022/09/30 11:32:14;;;;;;;4.40;4.00;;;;;;;12.76;100.00;96097.98;108340;1268;23278;-81
2022/09/30 11:34:56;;;;;;;4.40;4.00;;;;;;;12.63;100.00;96098.66;108264;1271;24282;-82
2022/09/30 11:37:41;;;;;;;3.40;3.10;;;;;;;12.58;100.00;96099.27;108333;1268;23889;-82
2022/09/30 11:40:35;;;;;;;4.20;3.50;;;;;;;12.63;100.00;96099.38;108250;1268;25232;-82
2022/09/30 11:43:19;;;;;;;3.20;2.70;;;;;;;12.71;100.00;96102.19;108339;1268;22543;-82
2022/09/30 11:46:10;;;;;;;3.00;2.70;;;;;;;12.70;100.00;96104.82;108272;1270;23321;-82
2022/09/30 11:48:57;;;;;;;3.00;2.70;;;;;;;12.61;100.00;96105.34;108251;1268;28435;-82
2022/09/30 11:51:35;;;;;;;3.50;3.00;;;;;;;12.52;100.00;96103.70;108289;1270;22776;-82
2022/09/30 11:54:23;;;;;;;5.90;5.30;;;;;;;12.43;100.00;96105.20;108288;1268;23685;-82